createdAt,value
2023-02-22T00:00:43.246Z,99423.69
2023-02-22T00:02:48.819Z,99422.19
2023-02-22T00:04:51.717Z,99429.72
2023-02-22T00:06:54.635Z,99423.75
2023-02-22T00:08:58.266Z,99434.03
2023-02-22T00:11:03.076Z,99424.25
2023-02-22T00:13:07.958Z,99424.25
2023-02-22T00:15:14.602Z,99422.38
2023-02-22T00:17:17.420Z,99421.41
2023-02-22T00:19:20.539Z,99427.06
2023-02-22T00:21:23.560Z,99429.72
2023-02-22T00:23:28.799Z,99434.03
2023-02-22T00:25:31.880Z,99441.19
2023-02-22T00:27:34.998Z,99433.84
2023-02-22T00:29:37.959Z,99443.00
2023-02-22T00:31:43.708Z,99441.00
2023-02-22T00:33:48.037Z,99441.00
2023-02-22T00:35:51.234Z,99437.53
2023-02-22T00:37:55.837Z,99436.50
2023-02-22T00:39:58.796Z,99437.53
2023-02-22T00:42:01.715Z,99442.66
2023-02-22T00:44:05.764Z,99436.69
2023-02-22T00:46:08.722Z,99446.03
2023-02-22T00:48:13.551Z,99439.03
2023-02-22T00:50:17.305Z,99439.41
2023-02-22T00:52:20.525Z,99441.59
2023-02-22T00:54:23.395Z,99437.28
2023-02-22T00:56:26.490Z,99440.31
2023-02-22T00:58:29.649Z,99443.28
2023-02-22T01:00:37.681Z,99446.50
2023-02-22T01:02:41.515Z,99438.88
2023-02-22T01:04:46.082Z,99443.34
2023-02-22T01:06:48.915Z,99439.22
2023-02-22T01:08:51.845Z,99442.22
2023-02-22T01:10:54.677Z,99445.91
2023-02-22T01:12:58.035Z,99445.53
2023-02-22T01:15:01.474Z,99440.22
2023-02-22T01:17:05.154Z,99442.13
2023-02-22T01:19:08.040Z,99443.94
2023-02-22T01:21:12.842Z,99445.09
2023-02-22T01:23:17.715Z,99443.81
2023-02-22T01:25:22.744Z,99445.47
2023-02-22T01:27:25.833Z,99443.28
2023-02-22T01:29:28.790Z,99442.13
2023-02-22T01:31:31.997Z,99444.78
2023-02-22T01:33:35.135Z,99438.91
2023-02-22T01:35:41.102Z,99447.72
2023-02-22T01:37:46.154Z,99440.59
2023-02-22T01:39:48.996Z,99432.94
2023-02-22T01:41:54.013Z,99433.59
2023-02-22T01:43:57.191Z,99433.53
2023-02-22T01:46:02.130Z,99435.88
2023-02-22T01:48:08.953Z,99435.38
2023-02-22T01:50:11.990Z,99440.69
2023-02-22T01:52:18.882Z,99439.19
2023-02-22T01:54:28.644Z,99436.53
2023-02-22T01:56:35.228Z,99443.03
2023-02-22T01:58:40.483Z,99437.78
2023-02-22T02:00:45.109Z,99444.72
2023-02-22T02:02:53.278Z,99442.44
2023-02-22T02:05:00.408Z,99439.94
2023-02-22T02:07:07.952Z,99439.94
2023-02-22T02:09:15.348Z,99441.94
2023-02-22T02:11:22.673Z,99444.75
2023-02-22T02:13:26.790Z,99442.66
2023-02-22T02:15:31.825Z,99440.81
2023-02-22T02:17:34.799Z,99447.94
2023-02-22T02:19:46.351Z,99448.13
2023-02-22T02:22:18.600Z,99447.28
2023-02-22T02:24:54.355Z,99450.78
2023-02-22T02:27:18.511Z,99447.94
2023-02-22T02:29:51.271Z,99447.13
2023-02-22T02:32:20.428Z,99447.94
2023-02-22T02:34:33.510Z,99444.66
2023-02-22T02:36:44.912Z,99445.63
2023-02-22T02:38:56.293Z,99441.81
2023-02-22T02:41:06.751Z,99444.81
2023-02-22T02:43:17.958Z,99441.16
2023-02-22T02:45:28.012Z,99441.34
2023-02-22T02:47:37.514Z,99445.69
2023-02-22T02:49:48.553Z,99438.53
2023-02-22T02:51:55.272Z,99435.88
2023-02-22T02:54:00.096Z,99438.53
2023-02-22T02:56:03.122Z,99440.19
2023-02-22T02:58:07.443Z,99436.53
2023-02-22T03:00:22.942Z,99443.03
2023-02-22T03:02:42.353Z,99447.03
2023-02-22T03:05:09.712Z,99445.19
2023-02-22T03:07:29.077Z,99434.09
2023-02-22T03:09:49.532Z,99442.91
2023-02-22T03:12:03.632Z,99444.06
2023-02-22T03:14:18.113Z,99449.56
2023-02-22T03:16:30.359Z,99444.09
2023-02-22T03:18:45.094Z,99452.72
2023-02-22T03:20:53.613Z,99447.41
2023-02-22T03:23:01.956Z,99462.34
2023-02-22T03:25:08.865Z,99466.63
2023-02-22T03:27:21.811Z,99457.22
2023-02-22T03:29:30.874Z,99455.38
2023-02-22T03:31:40.007Z,99459.69
2023-02-22T03:33:51.072Z,99461.88
2023-02-22T03:36:00.154Z,99460.84
2023-02-22T03:38:07.760Z,99461.88
2023-02-22T03:40:15.619Z,99461.22
2023-02-22T03:42:26.675Z,99467.16
2023-02-22T03:44:31.555Z,99461.88
2023-02-22T03:46:36.667Z,99459.34
2023-02-22T03:48:47.517Z,99458.88
2023-02-22T03:50:52.516Z,99459.06
2023-02-22T03:52:59.516Z,99457.25
2023-02-22T03:55:11.394Z,99458.41
2023-02-22T03:57:18.438Z,99457.63
2023-02-22T03:59:26.474Z,99459.75
2023-02-22T04:01:29.554Z,99456.81
2023-02-22T04:03:32.620Z,99461.13
2023-02-22T04:05:37.474Z,99454.97
2023-02-22T04:07:40.594Z,99463.41
2023-02-22T04:09:43.843Z,99464.41
2023-02-22T04:11:47.557Z,99457.28
2023-02-22T04:13:50.880Z,99461.94
2023-02-22T04:15:54.585Z,99463.13
2023-02-22T04:17:57.544Z,99466.09
2023-02-22T04:20:00.449Z,99467.25
2023-02-22T04:22:12.734Z,99471.75
2023-02-22T04:24:15.956Z,99474.69
2023-02-22T04:26:19.141Z,99474.03
2023-02-22T04:28:27.435Z,99474.88
2023-02-22T04:30:40.866Z,99470.91
2023-02-22T04:32:48.274Z,99469.09
2023-02-22T04:34:53.768Z,99473.56
2023-02-22T04:36:56.716Z,99476.88
2023-02-22T04:39:01.514Z,99471.38
2023-02-22T04:41:06.595Z,99469.94
2023-02-22T04:43:09.677Z,99469.25
2023-02-22T04:45:12.921Z,99469.09
2023-02-22T04:47:15.954Z,99468.25
2023-02-22T04:49:18.881Z,99462.13
2023-02-22T04:51:23.916Z,99456.00
2023-02-22T04:53:35.074Z,99450.06
2023-02-22T04:55:39.717Z,99450.06
2023-02-22T04:57:42.647Z,99455.00
2023-02-22T04:59:45.676Z,99448.88
2023-02-22T05:01:48.984Z,99455.00
2023-02-22T05:03:52.124Z,99462.63
2023-02-22T05:05:55.153Z,99455.19
2023-02-22T05:07:59.194Z,99456.19
2023-02-22T05:10:03.290Z,99463.63
2023-02-22T05:12:08.990Z,99462.97
2023-02-22T05:14:12.159Z,99460.47
2023-02-22T05:16:15.660Z,99463.13
2023-02-22T05:18:18.792Z,99459.50
2023-02-22T05:20:25.217Z,99465.78
2023-02-22T05:22:28.114Z,99471.06
2023-02-22T05:24:31.239Z,99461.13
2023-02-22T05:26:34.234Z,99454.19
2023-02-22T05:28:39.027Z,99465.78
2023-02-22T05:30:42.381Z,99466.44
2023-02-22T05:32:47.141Z,99464.44
2023-02-22T05:34:50.143Z,99462.13
2023-02-22T05:36:53.184Z,99464.78
2023-02-22T05:38:56.602Z,99470.09
2023-02-22T05:40:59.595Z,99460.31
2023-02-22T05:43:03.210Z,99472.91
2023-02-22T05:45:09.716Z,99469.59
2023-02-22T05:47:12.525Z,99473.56
2023-02-22T05:49:16.115Z,99466.59
2023-02-22T05:51:20.059Z,99470.88
2023-02-22T05:53:24.115Z,99474.19
2023-02-22T05:55:27.039Z,99478.19
2023-02-22T05:57:30.208Z,99475.03
2023-02-22T05:59:33.007Z,99479.66
2023-02-22T06:01:37.613Z,99484.13
2023-02-22T06:03:40.784Z,99480.81
2023-02-22T06:05:43.802Z,99479.84
2023-02-22T06:07:46.688Z,99487.91
2023-02-22T06:09:49.712Z,99484.94
2023-02-22T06:11:54.404Z,99488.41
2023-02-22T06:13:57.479Z,99490.06
2023-02-22T06:16:00.690Z,99489.41
2023-02-22T06:18:05.561Z,99492.53
2023-02-22T06:20:10.031Z,99501.09
2023-02-22T06:22:16.991Z,99495.03
2023-02-22T06:24:19.981Z,99498.97
2023-02-22T06:26:23.354Z,99497.69
2023-02-22T06:28:26.789Z,99510.06
2023-02-22T06:30:30.938Z,99499.97
2023-02-22T06:32:33.831Z,99509.25
2023-02-22T06:34:38.319Z,99520.88
2023-02-22T06:36:42.746Z,99512.28
2023-02-22T06:38:46.071Z,99520.72
2023-02-22T06:40:48.994Z,99521.53
2023-02-22T06:42:52.012Z,99522.22
2023-02-22T06:44:54.910Z,99514.94
2023-02-22T06:46:59.949Z,99531.53
2023-02-22T06:49:02.869Z,99528.03
2023-02-22T06:51:08.911Z,99529.19
2023-02-22T06:53:12.050Z,99526.72
2023-02-22T06:55:19.151Z,99536.69
2023-02-22T06:57:22.069Z,99536.84
2023-02-22T06:59:25.283Z,99541.31
2023-02-22T07:01:28.190Z,99541.63
2023-02-22T07:03:31.132Z,99537.84
2023-02-22T07:05:34.234Z,99537.00
2023-02-22T07:07:39.158Z,99541.63
2023-02-22T07:09:42.962Z,99537.31
2023-02-22T07:11:47.242Z,99542.44
2023-02-22T07:13:50.214Z,99538.13
2023-02-22T07:15:53.676Z,99542.09
2023-02-22T07:17:57.114Z,99546.38
2023-02-22T07:20:00.089Z,99549.00
2023-02-22T07:22:03.284Z,99548.16
2023-02-22T07:24:08.195Z,99547.31
2023-02-22T07:26:11.115Z,99547.59
2023-02-22T07:28:14.077Z,99551.06
2023-02-22T07:30:19.842Z,99547.91
2023-02-22T07:32:22.857Z,99547.03
2023-02-22T07:34:25.797Z,99558.44
2023-02-22T07:36:28.747Z,99552.25
2023-02-22T07:38:31.597Z,99545.44
2023-02-22T07:40:37.700Z,99545.72
2023-02-22T07:42:56.164Z,99535.75
2023-02-22T07:44:59.082Z,99541.69
2023-02-22T07:47:03.014Z,99549.75
2023-02-22T07:49:05.956Z,99547.06
2023-02-22T07:51:10.199Z,99551.69
2023-02-22T07:53:15.576Z,99550.63
2023-02-22T07:55:20.918Z,99551.38
2023-02-22T07:57:25.847Z,99548.03
2023-02-22T07:59:28.946Z,99552.91
2023-02-22T08:01:32.315Z,99551.22
2023-02-22T08:03:37.054Z,99545.97
2023-02-22T08:05:41.960Z,99549.41
2023-02-22T08:07:44.838Z,99543.56
2023-02-22T08:09:47.891Z,99547.50
2023-02-22T08:11:50.812Z,99551.75
2023-02-22T08:13:56.207Z,99558.34
2023-02-22T08:15:58.917Z,99554.78
2023-02-22T08:18:03.036Z,99551.75
2023-02-22T08:20:07.357Z,99560.38
2023-02-22T08:22:10.286Z,99557.81
2023-02-22T08:24:13.486Z,99565.94
2023-02-22T08:26:18.811Z,99568.66
2023-02-22T08:28:23.877Z,99563.44
2023-02-22T08:30:30.271Z,99563.78
2023-02-22T08:32:33.360Z,99567.00
2023-02-22T08:34:36.795Z,99574.09
2023-02-22T08:36:42.771Z,99570.69
2023-02-22T08:38:45.729Z,99565.00
2023-02-22T08:40:49.491Z,99568.75
2023-02-22T08:42:52.972Z,99562.16
2023-02-22T08:44:55.886Z,99563.63
2023-02-22T08:47:00.362Z,99567.38
2023-02-22T08:49:03.582Z,99564.34
2023-02-22T08:51:06.807Z,99564.78
2023-02-22T08:53:11.316Z,99573.41
2023-02-22T08:55:14.352Z,99575.53
2023-02-22T08:57:17.271Z,99565.44
2023-02-22T08:59:20.202Z,99568.38
2023-02-22T09:01:32.709Z,99562.94
2023-02-22T09:03:37.818Z,99568.97
2023-02-22T09:05:40.855Z,99573.31
2023-02-22T09:07:44.871Z,99572.47
2023-02-22T09:09:47.752Z,99563.94
2023-02-22T09:11:52.995Z,99572.63
2023-02-22T09:13:56.114Z,99567.03
2023-02-22T09:15:59.191Z,99575.47
2023-02-22T09:18:02.389Z,99573.00
2023-02-22T09:20:08.590Z,99572.47
2023-02-22T09:22:11.949Z,99575.56
2023-02-22T09:24:14.919Z,99577.16
2023-02-22T09:26:17.830Z,99573.13
2023-02-22T09:28:20.814Z,99576.97
2023-02-22T09:30:27.693Z,99578.25
2023-02-22T09:32:30.913Z,99577.75
2023-02-22T09:34:35.792Z,99575.38
2023-02-22T09:36:40.691Z,99575.25
2023-02-22T09:38:43.669Z,99584.53
2023-02-22T09:40:49.957Z,99576.59
2023-02-22T09:43:02.889Z,99573.63
2023-02-22T09:45:13.174Z,99569.66
2023-02-22T09:47:19.150Z,99568.50
2023-02-22T09:49:25.642Z,99564.38
2023-02-22T09:51:33.188Z,99562.34
2023-02-22T09:53:42.477Z,99562.84
2023-02-22T09:55:50.115Z,99565.09
2023-02-22T09:57:55.832Z,99562.00
2023-02-22T10:00:01.483Z,99559.13
2023-02-22T10:02:24.990Z,99553.41
2023-02-22T10:04:39.562Z,99545.09
2023-02-22T10:06:52.907Z,99546.72
2023-02-22T10:09:01.510Z,99555.06
2023-02-22T10:11:20.682Z,99550.22
2023-02-22T10:13:39.458Z,99545.00
2023-02-22T10:15:55.230Z,99542.31
2023-02-22T10:18:13.991Z,99544.88
2023-02-22T10:20:28.892Z,99545.25
2023-02-22T10:22:49.951Z,99539.84
2023-02-22T10:25:02.674Z,99542.53
2023-02-22T10:27:07.960Z,99548.28
2023-02-22T10:29:18.036Z,99544.44
2023-02-22T10:31:26.234Z,99549.66
2023-02-22T10:33:35.115Z,99549.69
2023-02-22T10:35:41.497Z,99548.22
2023-02-22T10:37:45.705Z,99545.16
2023-02-22T10:39:50.942Z,99538.16
2023-02-22T10:42:06.074Z,99540.66
2023-02-22T10:44:09.046Z,99533.03
2023-02-22T10:46:15.982Z,99529.56
2023-02-22T10:48:21.963Z,99546.81
2023-02-22T10:50:26.959Z,99543.31
2023-02-22T10:52:31.864Z,99545.38
2023-02-22T10:54:40.679Z,99536.72
2023-02-22T10:56:48.534Z,99539.81
2023-02-22T10:58:55.957Z,99540.44
2023-02-22T11:00:59.163Z,99539.59
2023-02-22T11:03:05.996Z,99539.59
2023-02-22T11:05:31.483Z,99545.31
2023-02-22T11:07:36.955Z,99540.53
2023-02-22T11:09:53.082Z,99534.75
2023-02-22T11:12:09.588Z,99535.78
2023-02-22T11:14:25.036Z,99536.88
2023-02-22T11:16:33.867Z,99532.97
2023-02-22T11:18:37.079Z,99531.94
2023-02-22T11:20:40.475Z,99528.06
2023-02-22T11:22:43.863Z,99528.88
2023-02-22T11:24:51.155Z,99522.31
2023-02-22T11:26:56.806Z,99523.75
2023-02-22T11:29:01.994Z,99527.88
2023-02-22T11:31:16.355Z,99519.22
2023-02-22T11:33:24.123Z,99520.91
2023-02-22T11:35:37.997Z,99516.38
2023-02-22T11:37:40.884Z,99515.13
2023-02-22T11:39:45.011Z,99510.81
2023-02-22T11:41:51.399Z,99512.88
2023-02-22T11:43:54.693Z,99506.28
2023-02-22T11:46:02.271Z,99508.34
2023-02-22T11:48:08.621Z,99510.81
2023-02-22T11:50:21.018Z,99506.91
2023-02-22T11:52:31.150Z,99510.41
2023-02-22T11:55:06.812Z,99499.50
2023-02-22T11:57:29.160Z,99507.75
2023-02-22T11:59:39.150Z,99503.84
2023-02-22T12:01:48.874Z,99503.44
2023-02-22T12:04:36.711Z,99507.56
2023-02-22T12:06:45.730Z,99507.53
2023-02-22T12:09:03.835Z,99505.00
2023-02-22T12:11:18.467Z,99498.22
2023-02-22T12:13:33.909Z,99500.63
2023-02-22T12:15:43.057Z,99500.16
2023-02-22T12:18:00.363Z,99506.38
2023-02-22T12:20:14.951Z,99505.66
2023-02-22T12:22:22.850Z,99502.59
2023-02-22T12:24:31.171Z,99500.31
2023-02-22T12:26:37.271Z,99499.59
2023-02-22T12:28:48.012Z,99505.38
2023-02-22T12:30:57.004Z,99506.84
2023-02-22T12:33:05.348Z,99497.16
2023-02-22T12:35:17.398Z,99505.19
2023-02-22T12:37:25.307Z,99504.38
2023-02-22T12:39:52.272Z,99507.94
2023-02-22T12:42:00.436Z,99498.66
2023-02-22T12:44:06.919Z,99500.91
2023-02-22T12:46:16.545Z,99506.22
2023-02-22T12:48:32.378Z,99505.00
2023-02-22T12:50:38.261Z,99503.91
2023-02-22T12:52:47.117Z,99503.16
2023-02-22T12:54:58.348Z,99500.72
2023-02-22T12:57:10.357Z,99496.72
2023-02-22T12:59:19.549Z,99496.94
2023-02-22T13:01:26.437Z,99494.31
2023-02-22T13:03:36.839Z,99490.97
2023-02-22T13:05:42.613Z,99490.34
2023-02-22T13:07:55.372Z,99495.34
2023-02-22T13:10:19.368Z,99492.63
2023-02-22T13:12:29.067Z,99492.25
2023-02-22T13:14:40.477Z,99489.50
2023-02-22T13:16:52.949Z,99488.13
2023-02-22T13:19:04.462Z,99485.66
2023-02-22T13:21:17.227Z,99490.19
2023-02-22T13:23:32.585Z,99481.75
2023-02-22T13:25:43.733Z,99483.16
2023-02-22T13:27:51.356Z,99488.13
2023-02-22T13:29:59.303Z,99495.38
2023-02-22T13:32:18.387Z,99493.09
2023-02-22T13:34:45.258Z,99485.84
2023-02-22T13:37:09.359Z,99476.97
2023-02-22T13:39:32.513Z,99480.91
2023-02-22T13:41:55.442Z,99473.28
2023-02-22T13:44:27.200Z,99474.53
2023-02-22T13:46:54.574Z,99478.03
2023-02-22T13:49:23.083Z,99478.84
2023-02-22T13:51:48.351Z,99479.28
2023-02-22T13:53:58.559Z,99483.59
2023-02-22T13:56:02.044Z,99480.69
2023-02-22T13:58:06.734Z,99478.41
2023-02-22T14:00:23.309Z,99482.78
2023-02-22T14:02:37.070Z,99485.47
2023-02-22T14:04:41.838Z,99485.63
2023-02-22T14:06:46.194Z,99483.16
2023-02-22T14:08:49.195Z,99481.31
2023-02-22T14:10:57.920Z,99490.63
2023-02-22T14:13:06.553Z,99488.38
2023-02-22T14:15:29.731Z,99481.75
2023-02-22T14:17:33.670Z,99483.38
2023-02-22T14:19:38.710Z,99484.81
2023-02-22T14:21:58.190Z,99482.53
2023-02-22T14:24:10.196Z,99481.13
2023-02-22T14:26:18.187Z,99476.78
2023-02-22T14:28:39.052Z,99475.56
2023-02-22T14:30:42.133Z,99470.41
2023-02-22T14:32:45.617Z,99478.84
2023-02-22T14:34:54.312Z,99477.44
2023-02-22T14:37:01.430Z,99475.38
2023-02-22T14:39:13.592Z,99483.44
2023-02-22T14:41:18.716Z,99484.88
2023-02-22T14:43:24.856Z,99480.34
2023-02-22T14:45:33.670Z,99481.38
2023-02-22T14:47:50.711Z,99484.25
2023-02-22T14:49:55.549Z,99483.63
2023-02-22T14:52:04.371Z,99477.66
2023-02-22T14:54:13.669Z,99490.44
2023-02-22T14:56:23.397Z,99481.81
2023-02-22T14:58:34.587Z,99480.78
2023-02-22T15:00:41.442Z,99487.75
2023-02-22T15:02:44.496Z,99480.75
2023-02-22T15:04:54.978Z,99486.94
2023-02-22T15:07:00.336Z,99480.56
2023-02-22T15:09:12.660Z,99472.94
2023-02-22T15:11:24.889Z,99470.84
2023-02-22T15:13:33.682Z,99472.91
2023-02-22T15:15:38.800Z,99469.56
2023-02-22T15:17:42.743Z,99478.22
2023-02-22T15:19:47.310Z,99479.50
2023-02-22T15:21:51.561Z,99478.03
2023-02-22T15:23:57.426Z,99481.50
2023-02-22T15:26:00.578Z,99476.75
2023-02-22T15:28:09.686Z,99477.16
2023-02-22T15:30:20.653Z,99478.63
2023-02-22T15:32:32.296Z,99476.97
2023-02-22T15:34:35.836Z,99472.22
2023-02-22T15:36:38.808Z,99478.78
2023-02-22T15:38:49.494Z,99476.88
2023-02-22T15:41:03.694Z,99479.28
2023-02-22T15:43:16.347Z,99478.44
2023-02-22T15:45:22.106Z,99473.25
2023-02-22T15:47:30.435Z,99476.09
2023-02-22T15:49:38.112Z,99474.63
2023-02-22T15:51:46.766Z,99473.19
2023-02-22T15:53:51.905Z,99474.19
2023-02-22T15:55:58.036Z,99471.84
2023-02-22T15:58:08.213Z,99475.34
2023-02-22T16:00:23.464Z,99484.75
2023-02-22T16:02:33.584Z,99487.47
2023-02-22T16:04:37.521Z,99477.88
2023-02-22T16:06:42.426Z,99481.75
2023-02-22T16:08:55.009Z,99483.28
2023-02-22T16:11:02.016Z,99482.66
2023-02-22T16:13:07.945Z,99480.56
2023-02-22T16:15:17.827Z,99481.16
2023-02-22T16:17:34.581Z,99488.13
2023-02-22T16:19:42.365Z,99485.13
2023-02-22T16:21:57.628Z,99483.94
2023-02-22T16:24:13.834Z,99491.03
2023-02-22T16:26:25.295Z,99490.38
2023-02-22T16:28:34.325Z,99491.28
2023-02-22T16:30:39.826Z,99489.91
2023-02-22T16:32:44.585Z,99502.41
2023-02-22T16:34:50.649Z,99499.47
2023-02-22T16:36:53.753Z,99504.19
2023-02-22T16:38:56.943Z,99514.19
2023-02-22T16:40:59.855Z,99518.88
2023-02-22T16:43:04.886Z,99508.50
2023-02-22T16:45:09.473Z,99506.13
2023-02-22T16:47:13.025Z,99502.66
2023-02-22T16:49:17.356Z,99502.75
2023-02-22T16:51:23.353Z,99498.25
2023-02-22T16:53:32.373Z,99510.06
2023-02-22T16:55:36.942Z,99513.75
2023-02-22T16:57:41.802Z,99517.72
2023-02-22T16:59:48.126Z,99514.41
2023-02-22T17:01:50.947Z,99517.41
2023-02-22T17:03:54.574Z,99507.50
2023-02-22T17:05:58.971Z,99511.97
2023-02-22T17:08:02.163Z,99511.91
2023-02-22T17:10:05.621Z,99505.84
2023-02-22T17:12:10.069Z,99525.63
2023-02-22T17:14:18.130Z,99515.47
2023-02-22T17:16:21.987Z,99516.81
2023-02-22T17:18:29.041Z,99518.59
2023-02-22T17:20:32.844Z,99513.97
2023-02-22T17:22:37.600Z,99511.75
2023-02-22T17:24:40.643Z,99507.44
2023-02-22T17:26:44.047Z,99514.81
2023-02-22T17:28:47.128Z,99507.03
2023-02-22T17:30:51.819Z,99504.06
2023-02-22T17:32:56.448Z,99513.09
2023-02-22T17:34:59.670Z,99507.78
2023-02-22T17:37:02.763Z,99514.41
2023-02-22T17:39:10.600Z,99515.72
2023-02-22T17:41:13.772Z,99507.78
2023-02-22T17:43:19.694Z,99514.00
2023-02-22T17:45:23.750Z,99514.88
2023-02-22T17:47:26.655Z,99516.44
2023-02-22T17:49:29.616Z,99515.59
2023-02-22T17:51:32.475Z,99518.03
2023-02-22T17:53:35.849Z,99511.84
2023-02-22T17:55:41.589Z,99514.47
2023-02-22T17:57:44.743Z,99516.66
2023-02-22T17:59:48.008Z,99517.41
2023-02-22T18:01:53.083Z,99513.53
2023-02-22T18:03:59.164Z,99524.81
2023-02-22T18:06:03.146Z,99515.81
2023-02-22T18:08:06.711Z,99515.34
2023-02-22T18:10:12.684Z,99517.25
2023-02-22T18:12:16.961Z,99511.28
2023-02-22T18:14:19.913Z,99513.22
2023-02-22T18:16:23.478Z,99512.50
2023-02-22T18:18:26.892Z,99518.13
2023-02-22T18:20:38.494Z,99518.88
2023-02-22T18:22:43.803Z,99525.50
2023-02-22T18:24:48.500Z,99519.44
2023-02-22T18:26:51.442Z,99521.69
2023-02-22T18:28:55.901Z,99518.13
2023-02-22T18:30:59.755Z,99525.09
2023-02-22T18:33:03.968Z,99524.09
2023-02-22T18:35:07.925Z,99519.94
2023-02-22T18:37:10.736Z,99520.13
2023-02-22T18:39:13.818Z,99521.53
2023-02-22T18:41:19.846Z,99527.69
2023-02-22T18:43:25.984Z,99519.84
2023-02-22T18:45:30.278Z,99527.47
2023-02-22T18:47:39.696Z,99518.84
2023-02-22T18:49:44.223Z,99522.84
2023-02-22T18:51:49.378Z,99509.69
2023-02-22T18:54:00.289Z,99516.75
2023-02-22T18:56:05.146Z,99502.16
2023-02-22T18:58:11.397Z,99517.78
2023-02-22T19:00:16.640Z,99514.53
2023-02-22T19:02:21.487Z,99513.69
2023-02-22T19:04:25.540Z,99515.75
2023-02-22T19:06:28.281Z,99517.78
2023-02-22T19:08:32.792Z,99521.72
2023-02-22T19:10:35.723Z,99512.59
2023-02-22T19:12:38.873Z,99510.16
2023-02-22T19:14:42.677Z,99513.28
2023-02-22T19:16:46.730Z,99512.91
2023-02-22T19:18:52.783Z,99515.53
2023-02-22T19:20:59.390Z,99510.84
2023-02-22T19:23:02.604Z,99518.19
2023-02-22T19:25:06.244Z,99511.16
2023-02-22T19:27:09.311Z,99503.22
2023-02-22T19:29:12.255Z,99501.06
2023-02-22T19:31:17.791Z,99507.03
2023-02-22T19:33:26.089Z,99507.09
2023-02-22T19:35:31.041Z,99506.06
2023-02-22T19:37:39.232Z,99505.03
2023-02-22T19:39:42.868Z,99500.66
2023-02-22T19:41:46.310Z,99510.63
2023-02-22T19:43:50.531Z,99506.16
2023-02-22T19:45:53.897Z,99506.31
2023-02-22T19:47:56.908Z,99512.03
2023-02-22T19:50:01.782Z,99510.09
2023-02-22T19:52:10.054Z,99513.06
2023-02-22T19:54:17.700Z,99515.53
2023-02-22T19:56:27.404Z,99521.19
2023-02-22T19:58:32.780Z,99516.75
2023-02-22T20:00:36.021Z,99514.94
2023-02-22T20:02:39.923Z,99512.94
2023-02-22T20:04:42.792Z,99516.25
2023-02-22T20:06:46.499Z,99521.72
2023-02-22T20:08:51.369Z,99523.03
2023-02-22T20:10:58.791Z,99516.41
2023-02-22T20:13:02.172Z,99521.91
2023-02-22T20:15:05.366Z,99524.25
2023-02-22T20:17:09.232Z,99528.72
2023-02-22T20:19:13.831Z,99525.97
2023-02-22T20:21:21.281Z,99526.72
2023-02-22T20:23:24.156Z,99518.97
2023-02-22T20:25:28.355Z,99526.66
2023-02-22T20:27:31.565Z,99520.53
2023-02-22T20:29:34.460Z,99514.06
2023-02-22T20:31:38.705Z,99519.19
2023-02-22T20:33:42.070Z,99507.56
2023-02-22T20:35:45.162Z,99519.09
2023-02-22T20:37:47.980Z,99514.84
2023-02-22T20:39:51.461Z,99515.38
2023-02-22T20:41:55.720Z,99512.38
2023-02-22T20:44:00.776Z,99515.69
2023-02-22T20:46:05.587Z,99520.22
2023-02-22T20:48:08.856Z,99516.25
2023-02-22T20:50:11.771Z,99518.41
2023-02-22T20:52:14.852Z,99521.41
2023-02-22T20:54:18.050Z,99518.63
2023-02-22T20:56:23.146Z,99527.56
2023-02-22T20:58:28.272Z,99514.16
2023-02-22T21:00:31.312Z,99524.94
2023-02-22T21:02:34.174Z,99524.75
2023-02-22T21:04:37.207Z,99515.44
2023-02-22T21:06:41.493Z,99515.97
2023-02-22T21:08:46.213Z,99527.56
2023-02-22T21:10:49.237Z,99517.78
2023-02-22T21:12:52.429Z,99514.63
2023-02-22T21:14:56.996Z,99516.63
2023-02-22T21:17:02.070Z,99520.94
2023-02-22T21:19:06.896Z,99508.34
2023-02-22T21:21:10.682Z,99514.50
2023-02-22T21:23:13.753Z,99513.66
2023-02-22T21:25:17.036Z,99511.81
2023-02-22T21:27:20.204Z,99508.16
2023-02-22T21:29:23.294Z,99507.00
2023-02-22T21:31:28.408Z,99513.16
2023-02-22T21:33:31.960Z,99511.47
2023-02-22T21:35:40.806Z,99508.97
2023-02-22T21:37:44.256Z,99502.34
2023-02-22T21:39:47.878Z,99508.50
2023-02-22T21:41:52.281Z,99504.34
2023-02-22T21:43:56.815Z,99505.19
2023-02-22T21:46:03.448Z,99500.88
2023-02-22T21:48:08.447Z,99504.72
2023-02-22T21:50:12.906Z,99499.06
2023-02-22T21:52:16.531Z,99499.19
2023-02-22T21:54:19.527Z,99492.25
2023-02-22T21:56:27.628Z,99491.91
2023-02-22T21:58:31.180Z,99494.94
2023-02-22T22:00:38.558Z,99492.41
2023-02-22T22:02:41.509Z,99492.91
2023-02-22T22:04:46.232Z,99484.97
2023-02-22T22:06:51.562Z,99491.78
2023-02-22T22:08:54.997Z,99490.94
2023-02-22T22:10:58.807Z,99495.72
2023-02-22T22:13:01.982Z,99494.28
2023-02-22T22:15:05.623Z,99495.06
2023-02-22T22:17:09.862Z,99491.22
2023-02-22T22:19:13.535Z,99493.56
2023-02-22T22:21:19.926Z,99488.25
2023-02-22T22:23:23.201Z,99496.34
2023-02-22T22:25:29.471Z,99485.91
2023-02-22T22:27:32.832Z,99480.31
2023-02-22T22:29:35.831Z,99478.97
2023-02-22T22:31:39.097Z,99476.00
2023-02-22T22:33:43.360Z,99474.97
2023-02-22T22:35:46.349Z,99480.25
2023-02-22T22:37:51.554Z,99477.97
2023-02-22T22:39:54.589Z,99477.47
2023-02-22T22:41:57.550Z,99485.19
2023-02-22T22:44:00.471Z,99482.25
2023-02-22T22:46:04.711Z,99482.25
2023-02-22T22:48:08.721Z,99472.47
2023-02-22T22:50:13.028Z,99483.38
2023-02-22T22:52:18.749Z,99484.38
2023-02-22T22:54:23.139Z,99485.16
2023-02-22T22:56:29.471Z,99486.69
2023-02-22T22:58:34.188Z,99484.19
2023-02-22T23:00:41.568Z,99488.81
2023-02-22T23:02:48.918Z,99489.91
2023-02-22T23:04:52.125Z,99490.94
2023-02-22T23:06:55.510Z,99486.31
2023-02-22T23:09:00.589Z,99484.97
2023-02-22T23:11:09.547Z,99489.88
2023-02-22T23:13:15.870Z,99491.34
2023-02-22T23:15:18.934Z,99482.78
2023-02-22T23:17:31.677Z,99480.81
2023-02-22T23:19:35.950Z,99483.06
2023-02-22T23:21:39.632Z,99494.00
2023-02-22T23:23:42.630Z,99484.56
2023-02-22T23:25:50.829Z,99492.22
2023-02-22T23:27:55.274Z,99481.28
2023-02-22T23:29:59.599Z,99485.59
2023-02-22T23:32:02.590Z,99486.56
2023-02-22T23:34:11.490Z,99484.25
2023-02-22T23:36:15.551Z,99489.16
2023-02-22T23:38:18.532Z,99487.69
2023-02-22T23:40:21.571Z,99486.13
2023-02-22T23:42:24.605Z,99483.50
2023-02-22T23:44:29.911Z,99478.88
2023-02-22T23:46:33.176Z,99488.81
2023-02-22T23:48:36.318Z,99480.56
2023-02-22T23:50:39.594Z,99485.38
2023-02-22T23:52:43.990Z,99495.50
2023-02-22T23:54:47.204Z,99493.66
2023-02-22T23:56:58.810Z,99493.44
2023-02-22T23:59:08.474Z,99488.81
